sensor_id;sensor_type;location;lat;lon;timestamp;temperature;humidity
27314;DHT22;14800;48.174;9.798;2023-07-31T00:01:21;16.50;75.40
27314;DHT22;14800;48.174;9.798;2023-07-31T00:03:46;16.50;75.50
27314;DHT22;14800;48.174;9.798;2023-07-31T00:06:12;16.50;75.60
27314;DHT22;14800;48.174;9.798;2023-07-31T00:08:38;16.50;75.60
27314;DHT22;14800;48.174;9.798;2023-07-31T00:11:04;16.50;75.60
27314;DHT22;14800;48.174;9.798;2023-07-31T00:13:29;16.50;75.60
27314;DHT22;14800;48.174;9.798;2023-07-31T00:15:55;16.50;75.80
27314;DHT22;14800;48.174;9.798;2023-07-31T00:18:20;16.50;75.90
27314;DHT22;14800;48.174;9.798;2023-07-31T00:20:46;16.50;75.90
27314;DHT22;14800;48.174;9.798;2023-07-31T00:23:11;16.50;75.90
27314;DHT22;14800;48.174;9.798;2023-07-31T00:25:37;16.50;75.90
27314;DHT22;14800;48.174;9.798;2023-07-31T00:28:03;16.50;76.10
27314;DHT22;14800;48.174;9.798;2023-07-31T00:30:28;16.50;76.10
27314;DHT22;14800;48.174;9.798;2023-07-31T00:32:54;16.50;76.10
27314;DHT22;14800;48.174;9.798;2023-07-31T00:35:20;16.40;76.00
27314;DHT22;14800;48.174;9.798;2023-07-31T00:37:45;16.40;76.00
27314;DHT22;14800;48.174;9.798;2023-07-31T00:40:11;16.30;76.20
27314;DHT22;14800;48.174;9.798;2023-07-31T00:42:36;16.20;76.40
27314;DHT22;14800;48.174;9.798;2023-07-31T00:45:02;16.20;76.60
27314;DHT22;14800;48.174;9.798;2023-07-31T00:47:28;16.10;76.70
27314;DHT22;14800;48.174;9.798;2023-07-31T00:49:53;16.10;76.80
27314;DHT22;14800;48.174;9.798;2023-07-31T00:52:19;16.10;77.00
27314;DHT22;14800;48.174;9.798;2023-07-31T00:54:45;16.10;77.10
27314;DHT22;14800;48.174;9.798;2023-07-31T00:57:11;16.10;77.10
27314;DHT22;14800;48.174;9.798;2023-07-31T00:59:37;16.10;77.30
27314;DHT22;14800;48.174;9.798;2023-07-31T01:02:03;16.10;77.10
27314;DHT22;14800;48.174;9.798;2023-07-31T01:04:29;16.10;77.00
27314;DHT22;14800;48.174;9.798;2023-07-31T01:09:49;16.10;77.10
27314;DHT22;14800;48.174;9.798;2023-07-31T01:12:19;16.10;77.20
27314;DHT22;14800;48.174;9.798;2023-07-31T01:15:01;16.10;76.80
27314;DHT22;14800;48.174;9.798;2023-07-31T01:17:28;16.10;77.30
27314;DHT22;14800;48.174;9.798;2023-07-31T01:19:55;16.10;77.00
27314;DHT22;14800;48.174;9.798;2023-07-31T01:28:14;16.10;77.80
27314;DHT22;14800;48.174;9.798;2023-07-31T01:30:44;16.10;77.10
27314;DHT22;14800;48.174;9.798;2023-07-31T01:33:12;16.00;77.20
27314;DHT22;14800;48.174;9.798;2023-07-31T01:35:42;16.00;77.30
27314;DHT22;14800;48.174;9.798;2023-07-31T01:38:08;16.00;77.40
27314;DHT22;14800;48.174;9.798;2023-07-31T01:40:34;15.90;77.40
27314;DHT22;14800;48.174;9.798;2023-07-31T01:42:59;15.90;77.50
27314;DHT22;14800;48.174;9.798;2023-07-31T01:45:25;15.90;77.60
27314;DHT22;14800;48.174;9.798;2023-07-31T01:47:51;15.80;77.70
27314;DHT22;14800;48.174;9.798;2023-07-31T01:50:16;15.80;78.00
27314;DHT22;14800;48.174;9.798;2023-07-31T01:52:42;15.80;78.90
27314;DHT22;14800;48.174;9.798;2023-07-31T01:55:07;15.80;78.00
27314;DHT22;14800;48.174;9.798;2023-07-31T01:57:33;15.80;78.00
27314;DHT22;14800;48.174;9.798;2023-07-31T01:59:59;15.80;78.00
27314;DHT22;14800;48.174;9.798;2023-07-31T02:02:24;15.80;78.00
27314;DHT22;14800;48.174;9.798;2023-07-31T02:04:50;15.70;78.00
27314;DHT22;14800;48.174;9.798;2023-07-31T02:07:15;15.70;78.30
27314;DHT22;14800;48.174;9.798;2023-07-31T02:09:41;15.70;78.50
27314;DHT22;14800;48.174;9.798;2023-07-31T02:12:07;15.70;78.50
27314;DHT22;14800;48.174;9.798;2023-07-31T02:14:34;15.70;78.60
27314;DHT22;14800;48.174;9.798;2023-07-31T02:16:59;15.70;78.60
27314;DHT22;14800;48.174;9.798;2023-07-31T02:19:25;15.70;78.60
27314;DHT22;14800;48.174;9.798;2023-07-31T02:21:51;15.70;78.60
27314;DHT22;14800;48.174;9.798;2023-07-31T02:24:16;15.70;78.70
27314;DHT22;14800;48.174;9.798;2023-07-31T02:26:42;15.70;78.70
27314;DHT22;14800;48.174;9.798;2023-07-31T02:29:08;15.70;78.60
27314;DHT22;14800;48.174;9.798;2023-07-31T02:31:34;15.70;78.30
27314;DHT22;14800;48.174;9.798;2023-07-31T02:33:59;15.70;78.30
27314;DHT22;14800;48.174;9.798;2023-07-31T02:36:25;15.60;78.30
27314;DHT22;14800;48.174;9.798;2023-07-31T02:38:51;15.60;78.30
27314;DHT22;14800;48.174;9.798;2023-07-31T02:41:16;15.50;78.40
27314;DHT22;14800;48.174;9.798;2023-07-31T02:43:42;15.40;78.40
27314;DHT22;14800;48.174;9.798;2023-07-31T02:46:07;15.40;78.60
27314;DHT22;14800;48.174;9.798;2023-07-31T02:48:33;15.30;78.60
27314;DHT22;14800;48.174;9.798;2023-07-31T02:50:58;15.30;79.00
27314;DHT22;14800;48.174;9.798;2023-07-31T02:53:24;15.20;79.30
27314;DHT22;14800;48.174;9.798;2023-07-31T02:55:50;15.30;79.40
27314;DHT22;14800;48.174;9.798;2023-07-31T02:58:15;15.30;79.60
27314;DHT22;14800;48.174;9.798;2023-07-31T03:00:44;15.30;79.40
27314;DHT22;14800;48.174;9.798;2023-07-31T03:03:10;15.30;79.60
27314;DHT22;14800;48.174;9.798;2023-07-31T03:05:35;15.30;79.50
27314;DHT22;14800;48.174;9.798;2023-07-31T03:08:01;15.30;79.60
27314;DHT22;14800;48.174;9.798;2023-07-31T03:10:27;15.30;79.60
27314;DHT22;14800;48.174;9.798;2023-07-31T03:12:52;15.30;79.50
27314;DHT22;14800;48.174;9.798;2023-07-31T03:15:18;15.20;79.30
27314;DHT22;14800;48.174;9.798;2023-07-31T03:17:44;15.30;79.40
27314;DHT22;14800;48.174;9.798;2023-07-31T03:20:10;15.20;79.50
27314;DHT22;14800;48.174;9.798;2023-07-31T03:22:35;15.20;79.70
27314;DHT22;14800;48.174;9.798;2023-07-31T03:25:02;15.20;79.80
27314;DHT22;14800;48.174;9.798;2023-07-31T03:27:28;15.20;79.60
27314;DHT22;14800;48.174;9.798;2023-07-31T03:29:53;15.20;79.60
27314;DHT22;14800;48.174;9.798;2023-07-31T03:32:19;15.20;79.80
27314;DHT22;14800;48.174;9.798;2023-07-31T03:34:45;15.10;80.10
27314;DHT22;14800;48.174;9.798;2023-07-31T03:37:10;15.10;80.40
27314;DHT22;14800;48.174;9.798;2023-07-31T03:39:36;15.10;80.70
27314;DHT22;14800;48.174;9.798;2023-07-31T03:42:01;15.10;81.00
27314;DHT22;14800;48.174;9.798;2023-07-31T03:44:27;15.10;81.00
27314;DHT22;14800;48.174;9.798;2023-07-31T03:46:53;15.20;81.00
27314;DHT22;14800;48.174;9.798;2023-07-31T03:49:19;15.20;80.90
27314;DHT22;14800;48.174;9.798;2023-07-31T03:51:44;15.30;80.90
27314;DHT22;14800;48.174;9.798;2023-07-31T03:54:10;15.30;80.80
27314;DHT22;14800;48.174;9.798;2023-07-31T03:56:36;15.40;80.90
27314;DHT22;14800;48.174;9.798;2023-07-31T03:59:03;15.40;81.00
27314;DHT22;14800;48.174;9.798;2023-07-31T04:01:28;15.50;81.00
27314;DHT22;14800;48.174;9.798;2023-07-31T04:03:54;15.50;81.70
27314;DHT22;14800;48.174;9.798;2023-07-31T04:06:19;15.50;80.80
27314;DHT22;14800;48.174;9.798;2023-07-31T04:08:45;15.40;80.90
27314;DHT22;14800;48.174;9.798;2023-07-31T04:11:11;15.40;81.10
27314;DHT22;14800;48.174;9.798;2023-07-31T04:13:37;15.50;81.40
27314;DHT22;14800;48.174;9.798;2023-07-31T04:16:03;15.50;81.50
27314;DHT22;14800;48.174;9.798;2023-07-31T04:18:29;15.60;81.70
27314;DHT22;14800;48.174;9.798;2023-07-31T04:20:56;15.50;81.70
27314;DHT22;14800;48.174;9.798;2023-07-31T04:23:24;15.60;81.90
27314;DHT22;14800;48.174;9.798;2023-07-31T04:25:49;15.60;82.00
27314;DHT22;14800;48.174;9.798;2023-07-31T04:28:15;15.60;82.20
27314;DHT22;14800;48.174;9.798;2023-07-31T04:30:41;15.70;82.00
27314;DHT22;14800;48.174;9.798;2023-07-31T04:33:06;15.70;82.00
27314;DHT22;14800;48.174;9.798;2023-07-31T04:35:32;15.70;82.00
27314;DHT22;14800;48.174;9.798;2023-07-31T04:37:57;15.80;82.00
27314;DHT22;14800;48.174;9.798;2023-07-31T04:40:23;15.80;82.00
27314;DHT22;14800;48.174;9.798;2023-07-31T04:42:49;15.90;82.00
27314;DHT22;14800;48.174;9.798;2023-07-31T04:45:14;15.90;81.90
27314;DHT22;14800;48.174;9.798;2023-07-31T04:47:40;16.00;81.70
27314;DHT22;14800;48.174;9.798;2023-07-31T04:50:06;16.00;81.60
27314;DHT22;14800;48.174;9.798;2023-07-31T04:52:31;16.00;81.40
27314;DHT22;14800;48.174;9.798;2023-07-31T04:54:57;16.10;81.80
27314;DHT22;14800;48.174;9.798;2023-07-31T04:57:23;16.10;81.40
27314;DHT22;14800;48.174;9.798;2023-07-31T04:59:48;16.10;81.30
27314;DHT22;14800;48.174;9.798;2023-07-31T05:02:14;16.20;82.00
27314;DHT22;14800;48.174;9.798;2023-07-31T05:04:39;16.20;81.20
27314;DHT22;14800;48.174;9.798;2023-07-31T05:07:05;16.20;81.20
27314;DHT22;14800;48.174;9.798;2023-07-31T05:09:31;16.20;81.30
27314;DHT22;14800;48.174;9.798;2023-07-31T05:11:56;16.30;81.30
27314;DHT22;14800;48.174;9.798;2023-07-31T05:14:23;16.30;81.40
27314;DHT22;14800;48.174;9.798;2023-07-31T05:16:48;16.30;81.50
27314;DHT22;14800;48.174;9.798;2023-07-31T05:19:14;16.40;81.60
27314;DHT22;14800;48.174;9.798;2023-07-31T05:21:40;16.40;81.50
27314;DHT22;14800;48.174;9.798;2023-07-31T05:24:05;16.50;81.40
27314;DHT22;14800;48.174;9.798;2023-07-31T05:26:31;16.60;81.40
27314;DHT22;14800;48.174;9.798;2023-07-31T05:28:57;16.60;81.30
27314;DHT22;14800;48.174;9.798;2023-07-31T05:31:23;16.60;81.30
27314;DHT22;14800;48.174;9.798;2023-07-31T05:33:50;16.60;81.20
27314;DHT22;14800;48.174;9.798;2023-07-31T05:36:16;16.70;81.20
27314;DHT22;14800;48.174;9.798;2023-07-31T05:38:42;16.70;81.10
27314;DHT22;14800;48.174;9.798;2023-07-31T05:41:09;16.70;81.30
27314;DHT22;14800;48.174;9.798;2023-07-31T05:43:35;16.70;81.50
27314;DHT22;14800;48.174;9.798;2023-07-31T05:46:00;16.80;81.70
27314;DHT22;14800;48.174;9.798;2023-07-31T05:48:26;16.80;81.70
27314;DHT22;14800;48.174;9.798;2023-07-31T05:50:52;16.90;81.70
27314;DHT22;14800;48.174;9.798;2023-07-31T05:53:18;16.90;81.50
27314;DHT22;14800;48.174;9.798;2023-07-31T05:55:43;17.00;81.50
27314;DHT22;14800;48.174;9.798;2023-07-31T05:58:09;17.10;81.50
27314;DHT22;14800;48.174;9.798;2023-07-31T06:00:35;17.10;81.50
27314;DHT22;14800;48.174;9.798;2023-07-31T06:03:00;17.10;81.30
27314;DHT22;14800;48.174;9.798;2023-07-31T06:05:26;17.20;81.30
27314;DHT22;14800;48.174;9.798;2023-07-31T06:07:53;17.20;81.60
27314;DHT22;14800;48.174;9.798;2023-07-31T06:10:19;17.30;81.90
27314;DHT22;14800;48.174;9.798;2023-07-31T06:12:44;17.30;81.50
27314;DHT22;14800;48.174;9.798;2023-07-31T06:15:10;17.40;81.30
27314;DHT22;14800;48.174;9.798;2023-07-31T06:17:36;17.50;81.60
27314;DHT22;14800;48.174;9.798;2023-07-31T06:20:02;17.50;81.50
27314;DHT22;14800;48.174;9.798;2023-07-31T06:22:30;17.60;80.90
27314;DHT22;14800;48.174;9.798;2023-07-31T06:24:56;17.70;80.40
27314;DHT22;14800;48.174;9.798;2023-07-31T06:27:21;17.80;80.20
27314;DHT22;14800;48.174;9.798;2023-07-31T06:29:47;17.80;80.00
27314;DHT22;14800;48.174;9.798;2023-07-31T06:32:13;18.00;79.80
27314;DHT22;14800;48.174;9.798;2023-07-31T06:34:39;18.00;79.30
27314;DHT22;14800;48.174;9.798;2023-07-31T06:37:04;18.10;78.60
27314;DHT22;14800;48.174;9.798;2023-07-31T06:39:30;18.20;77.80
27314;DHT22;14800;48.174;9.798;2023-07-31T06:41:56;18.30;77.20
27314;DHT22;14800;48.174;9.798;2023-07-31T06:44:21;18.40;76.80
27314;DHT22;14800;48.174;9.798;2023-07-31T06:46:47;18.50;76.50
27314;DHT22;14800;48.174;9.798;2023-07-31T06:49:13;18.60;76.20
27314;DHT22;14800;48.174;9.798;2023-07-31T06:51:40;18.70;75.90
27314;DHT22;14800;48.174;9.798;2023-07-31T06:54:07;18.70;75.40
27314;DHT22;14800;48.174;9.798;2023-07-31T06:56:33;18.80;74.60
27314;DHT22;14800;48.174;9.798;2023-07-31T06:58:58;18.90;74.50
27314;DHT22;14800;48.174;9.798;2023-07-31T07:01:24;18.90;74.00
27314;DHT22;14800;48.174;9.798;2023-07-31T07:03:49;19.00;73.20
27314;DHT22;14800;48.174;9.798;2023-07-31T07:06:16;19.10;72.90
27314;DHT22;14800;48.174;9.798;2023-07-31T07:08:43;19.10;72.60
27314;DHT22;14800;48.174;9.798;2023-07-31T07:11:08;19.20;72.60
27314;DHT22;14800;48.174;9.798;2023-07-31T07:13:34;19.20;72.10
27314;DHT22;14800;48.174;9.798;2023-07-31T07:16:00;19.30;72.00
27314;DHT22;14800;48.174;9.798;2023-07-31T07:18:25;19.30;71.60
27314;DHT22;14800;48.174;9.798;2023-07-31T07:20:53;19.40;71.60
27314;DHT22;14800;48.174;9.798;2023-07-31T07:23:19;19.40;71.60
27314;DHT22;14800;48.174;9.798;2023-07-31T07:25:46;19.40;71.40
27314;DHT22;14800;48.174;9.798;2023-07-31T07:28:12;19.50;71.10
27314;DHT22;14800;48.174;9.798;2023-07-31T07:30:38;19.50;70.90
27314;DHT22;14800;48.174;9.798;2023-07-31T07:33:03;19.60;70.40
27314;DHT22;14800;48.174;9.798;2023-07-31T07:35:29;19.60;69.90
27314;DHT22;14800;48.174;9.798;2023-07-31T07:37:55;19.70;69.60
27314;DHT22;14800;48.174;9.798;2023-07-31T07:40:21;19.80;69.30
27314;DHT22;14800;48.174;9.798;2023-07-31T07:42:46;19.80;69.20
27314;DHT22;14800;48.174;9.798;2023-07-31T07:45:12;19.80;68.60
27314;DHT22;14800;48.174;9.798;2023-07-31T07:47:40;19.90;68.40
27314;DHT22;14800;48.174;9.798;2023-07-31T07:50:06;19.90;67.80
27314;DHT22;14800;48.174;9.798;2023-07-31T07:52:32;19.90;67.90
27314;DHT22;14800;48.174;9.798;2023-07-31T07:54:57;20.00;68.00
27314;DHT22;14800;48.174;9.798;2023-07-31T07:57:23;20.00;68.10
27314;DHT22;14800;48.174;9.798;2023-07-31T07:59:48;20.00;67.90
27314;DHT22;14800;48.174;9.798;2023-07-31T08:02:14;20.10;67.60
27314;DHT22;14800;48.174;9.798;2023-07-31T08:04:39;20.20;67.40
27314;DHT22;14800;48.174;9.798;2023-07-31T08:07:05;20.30;67.10
27314;DHT22;14800;48.174;9.798;2023-07-31T08:09:31;20.40;66.70
27314;DHT22;14800;48.174;9.798;2023-07-31T08:11:56;20.40;67.10
27314;DHT22;14800;48.174;9.798;2023-07-31T08:14:27;20.50;66.90
27314;DHT22;14800;48.174;9.798;2023-07-31T08:16:52;20.60;66.10
27314;DHT22;14800;48.174;9.798;2023-07-31T08:19:18;20.70;65.60
27314;DHT22;14800;48.174;9.798;2023-07-31T08:21:44;20.80;64.60
27314;DHT22;14800;48.174;9.798;2023-07-31T08:24:09;20.80;64.10
27314;DHT22;14800;48.174;9.798;2023-07-31T08:26:35;20.90;64.00
27314;DHT22;14800;48.174;9.798;2023-07-31T08:29:01;20.90;64.30
27314;DHT22;14800;48.174;9.798;2023-07-31T08:31:26;21.00;64.10
27314;DHT22;14800;48.174;9.798;2023-07-31T08:33:52;21.10;63.80
27314;DHT22;14800;48.174;9.798;2023-07-31T08:36:18;21.10;63.80
27314;DHT22;14800;48.174;9.798;2023-07-31T08:38:44;21.20;63.60
27314;DHT22;14800;48.174;9.798;2023-07-31T08:41:10;21.20;63.40
27314;DHT22;14800;48.174;9.798;2023-07-31T08:43:36;21.30;62.90
27314;DHT22;14800;48.174;9.798;2023-07-31T08:46:03;21.40;62.80
27314;DHT22;14800;48.174;9.798;2023-07-31T08:48:31;21.40;62.70
27314;DHT22;14800;48.174;9.798;2023-07-31T08:50:57;21.50;62.40
27314;DHT22;14800;48.174;9.798;2023-07-31T08:53:23;21.60;62.20
27314;DHT22;14800;48.174;9.798;2023-07-31T08:55:49;21.70;61.60
27314;DHT22;14800;48.174;9.798;2023-07-31T08:58:15;21.80;61.40
27314;DHT22;14800;48.174;9.798;2023-07-31T09:00:41;21.80;60.30
27314;DHT22;14800;48.174;9.798;2023-07-31T09:03:13;21.90;59.40
27314;DHT22;14800;48.174;9.798;2023-07-31T09:05:42;21.90;59.40
27314;DHT22;14800;48.174;9.798;2023-07-31T09:08:09;21.90;59.60
27314;DHT22;14800;48.174;9.798;2023-07-31T09:10:35;21.90;59.70
27314;DHT22;14800;48.174;9.798;2023-07-31T09:13:01;22.00;60.10
27314;DHT22;14800;48.174;9.798;2023-07-31T09:15:27;22.10;60.10
27314;DHT22;14800;48.174;9.798;2023-07-31T09:17:59;22.20;59.30
27314;DHT22;14800;48.174;9.798;2023-07-31T09:20:28;22.30;59.10
27314;DHT22;14800;48.174;9.798;2023-07-31T09:22:55;22.40;59.40
27314;DHT22;14800;48.174;9.798;2023-07-31T09:25:25;22.40;59.00
27314;DHT22;14800;48.174;9.798;2023-07-31T09:27:58;22.50;58.30
27314;DHT22;14800;48.174;9.798;2023-07-31T09:30:24;22.50;58.80
27314;DHT22;14800;48.174;9.798;2023-07-31T09:32:51;22.60;58.70
27314;DHT22;14800;48.174;9.798;2023-07-31T09:35:30;22.60;58.70
27314;DHT22;14800;48.174;9.798;2023-07-31T09:38:07;22.70;58.10
27314;DHT22;14800;48.174;9.798;2023-07-31T09:40:35;22.70;58.00
27314;DHT22;14800;48.174;9.798;2023-07-31T09:43:06;22.80;58.50
27314;DHT22;14800;48.174;9.798;2023-07-31T09:45:34;22.90;58.40
27314;DHT22;14800;48.174;9.798;2023-07-31T09:48:02;23.00;58.50
27314;DHT22;14800;48.174;9.798;2023-07-31T09:50:29;23.00;58.00
27314;DHT22;14800;48.174;9.798;2023-07-31T09:52:55;23.10;58.30
27314;DHT22;14800;48.174;9.798;2023-07-31T09:55:20;23.20;57.60
27314;DHT22;14800;48.174;9.798;2023-07-31T09:57:49;23.30;57.20
27314;DHT22;14800;48.174;9.798;2023-07-31T10:00:17;23.40;56.70
27314;DHT22;14800;48.174;9.798;2023-07-31T10:02:45;23.40;56.60
27314;DHT22;14800;48.174;9.798;2023-07-31T10:05:16;23.50;56.20
27314;DHT22;14800;48.174;9.798;2023-07-31T10:07:45;23.50;56.20
27314;DHT22;14800;48.174;9.798;2023-07-31T10:10:16;23.50;56.60
27314;DHT22;14800;48.174;9.798;2023-07-31T10:12:42;23.50;56.70
27314;DHT22;14800;48.174;9.798;2023-07-31T10:15:09;23.60;56.60
27314;DHT22;14800;48.174;9.798;2023-07-31T10:17:35;23.60;56.90
27314;DHT22;14800;48.174;9.798;2023-07-31T10:20:03;23.60;54.70
27314;DHT22;14800;48.174;9.798;2023-07-31T10:22:30;23.60;56.00
27314;DHT22;14800;48.174;9.798;2023-07-31T10:24:58;23.70;55.80
27314;DHT22;14800;48.174;9.798;2023-07-31T10:27:24;23.70;55.40
27314;DHT22;14800;48.174;9.798;2023-07-31T10:29:50;23.80;55.30
27314;DHT22;14800;48.174;9.798;2023-07-31T10:32:17;23.80;54.80
27314;DHT22;14800;48.174;9.798;2023-07-31T10:34:44;23.80;55.20
27314;DHT22;14800;48.174;9.798;2023-07-31T10:37:49;23.80;55.00
27314;DHT22;14800;48.174;9.798;2023-07-31T10:40:25;23.90;53.90
27314;DHT22;14800;48.174;9.798;2023-07-31T10:42:55;24.00;54.10
27314;DHT22;14800;48.174;9.798;2023-07-31T10:45:39;24.00;54.70
27314;DHT22;14800;48.174;9.798;2023-07-31T10:48:12;24.00;53.70
27314;DHT22;14800;48.174;9.798;2023-07-31T10:50:46;24.10;54.20
27314;DHT22;14800;48.174;9.798;2023-07-31T10:53:30;24.10;54.60
27314;DHT22;14800;48.174;9.798;2023-07-31T10:56:06;24.10;54.50
27314;DHT22;14800;48.174;9.798;2023-07-31T10:58:33;24.10;54.30
27314;DHT22;14800;48.174;9.798;2023-07-31T11:01:01;24.20;53.50
27314;DHT22;14800;48.174;9.798;2023-07-31T11:03:49;24.10;53.50
27314;DHT22;14800;48.174;9.798;2023-07-31T11:06:17;24.10;53.50
27314;DHT22;14800;48.174;9.798;2023-07-31T11:08:45;24.10;54.30
27314;DHT22;14800;48.174;9.798;2023-07-31T11:11:13;24.10;53.80
27314;DHT22;14800;48.174;9.798;2023-07-31T11:16:10;24.00;54.30
27314;DHT22;14800;48.174;9.798;2023-07-31T11:18:39;24.00;54.50
27314;DHT22;14800;48.174;9.798;2023-07-31T11:21:05;23.90;54.40
27314;DHT22;14800;48.174;9.798;2023-07-31T11:23:30;23.90;54.70
27314;DHT22;14800;48.174;9.798;2023-07-31T11:25:59;23.90;54.80
27314;DHT22;14800;48.174;9.798;2023-07-31T11:28:25;23.90;54.90
27314;DHT22;14800;48.174;9.798;2023-07-31T11:30:51;23.90;54.80
27314;DHT22;14800;48.174;9.798;2023-07-31T11:33:17;24.00;55.50
27314;DHT22;14800;48.174;9.798;2023-07-31T11:35:47;24.10;55.20
27314;DHT22;14800;48.174;9.798;2023-07-31T11:40:55;24.10;55.00
27314;DHT22;14800;48.174;9.798;2023-07-31T11:43:21;24.20;55.40
27314;DHT22;14800;48.174;9.798;2023-07-31T11:45:49;24.30;55.60
27314;DHT22;14800;48.174;9.798;2023-07-31T11:48:27;24.30;55.70
27314;DHT22;14800;48.174;9.798;2023-07-31T11:50:57;24.40;55.00
27314;DHT22;14800;48.174;9.798;2023-07-31T11:53:49;24.60;55.40
27314;DHT22;14800;48.174;9.798;2023-07-31T11:56:18;24.70;54.40
27314;DHT22;14800;48.174;9.798;2023-07-31T11:58:47;24.80;54.80
27314;DHT22;14800;48.174;9.798;2023-07-31T12:01:15;24.90;54.40
27314;DHT22;14800;48.174;9.798;2023-07-31T12:03:41;25.00;54.40
27314;DHT22;14800;48.174;9.798;2023-07-31T12:06:08;25.10;54.30
27314;DHT22;14800;48.174;9.798;2023-07-31T12:08:34;25.20;54.20
27314;DHT22;14800;48.174;9.798;2023-07-31T12:11:04;25.30;53.50
27314;DHT22;14800;48.174;9.798;2023-07-31T12:13:31;25.30;52.30
27314;DHT22;14800;48.174;9.798;2023-07-31T12:15:59;25.40;53.00
27314;DHT22;14800;48.174;9.798;2023-07-31T12:18:27;25.40;52.80
27314;DHT22;14800;48.174;9.798;2023-07-31T12:20:59;25.40;52.70
27314;DHT22;14800;48.174;9.798;2023-07-31T12:26:06;25.40;52.40
27314;DHT22;14800;48.174;9.798;2023-07-31T12:28:37;25.50;52.50
27314;DHT22;14800;48.174;9.798;2023-07-31T12:31:04;25.50;52.20
27314;DHT22;14800;48.174;9.798;2023-07-31T12:33:34;25.50;52.70
27314;DHT22;14800;48.174;9.798;2023-07-31T12:36:03;25.50;52.10
27314;DHT22;14800;48.174;9.798;2023-07-31T12:38:29;25.50;53.30
27314;DHT22;14800;48.174;9.798;2023-07-31T12:40:55;25.60;52.60
27314;DHT22;14800;48.174;9.798;2023-07-31T12:43:20;25.60;52.40
27314;DHT22;14800;48.174;9.798;2023-07-31T12:45:46;25.60;52.10
27314;DHT22;14800;48.174;9.798;2023-07-31T12:48:13;25.60;51.90
27314;DHT22;14800;48.174;9.798;2023-07-31T12:50:39;25.60;52.20
27314;DHT22;14800;48.174;9.798;2023-07-31T12:53:05;25.60;52.00
27314;DHT22;14800;48.174;9.798;2023-07-31T12:55:31;25.50;51.80
27314;DHT22;14800;48.174;9.798;2023-07-31T12:57:56;25.50;51.40
27314;DHT22;14800;48.174;9.798;2023-07-31T13:00:22;25.50;51.40
27314;DHT22;14800;48.174;9.798;2023-07-31T13:02:48;25.40;51.60
27314;DHT22;14800;48.174;9.798;2023-07-31T13:05:14;25.40;51.70
27314;DHT22;14800;48.174;9.798;2023-07-31T13:07:40;25.40;52.10
27314;DHT22;14800;48.174;9.798;2023-07-31T13:10:07;25.30;51.90
27314;DHT22;14800;48.174;9.798;2023-07-31T13:12:33;25.30;51.60
27314;DHT22;14800;48.174;9.798;2023-07-31T13:14:58;25.30;52.20
27314;DHT22;14800;48.174;9.798;2023-07-31T13:17:24;25.30;52.40
27314;DHT22;14800;48.174;9.798;2023-07-31T13:19:50;25.20;52.30
27314;DHT22;14800;48.174;9.798;2023-07-31T13:22:15;25.20;52.10
27314;DHT22;14800;48.174;9.798;2023-07-31T13:24:41;25.20;52.30
27314;DHT22;14800;48.174;9.798;2023-07-31T13:27:06;25.20;52.50
27314;DHT22;14800;48.174;9.798;2023-07-31T13:29:32;25.20;52.50
27314;DHT22;14800;48.174;9.798;2023-07-31T13:31:58;25.20;52.80
27314;DHT22;14800;48.174;9.798;2023-07-31T13:34:24;25.20;52.90
27314;DHT22;14800;48.174;9.798;2023-07-31T13:36:49;25.30;53.10
27314;DHT22;14800;48.174;9.798;2023-07-31T13:39:15;25.30;53.10
27314;DHT22;14800;48.174;9.798;2023-07-31T13:41:41;25.40;53.00
27314;DHT22;14800;48.174;9.798;2023-07-31T13:44:06;25.40;52.50
27314;DHT22;14800;48.174;9.798;2023-07-31T13:46:32;25.40;52.00
27314;DHT22;14800;48.174;9.798;2023-07-31T13:48:59;25.50;52.20
27314;DHT22;14800;48.174;9.798;2023-07-31T13:51:25;25.50;52.00
27314;DHT22;14800;48.174;9.798;2023-07-31T13:53:51;25.50;51.60
27314;DHT22;14800;48.174;9.798;2023-07-31T13:56:17;25.50;52.10
27314;DHT22;14800;48.174;9.798;2023-07-31T13:58:42;25.50;52.00
27314;DHT22;14800;48.174;9.798;2023-07-31T14:01:08;25.60;52.50
27314;DHT22;14800;48.174;9.798;2023-07-31T14:03:34;25.60;51.30
27314;DHT22;14800;48.174;9.798;2023-07-31T14:05:59;25.60;51.60
27314;DHT22;14800;48.174;9.798;2023-07-31T14:08:25;25.60;51.50
27314;DHT22;14800;48.174;9.798;2023-07-31T14:10:51;25.60;51.50
27314;DHT22;14800;48.174;9.798;2023-07-31T14:13:16;25.60;51.50
27314;DHT22;14800;48.174;9.798;2023-07-31T14:15:42;25.60;51.50
27314;DHT22;14800;48.174;9.798;2023-07-31T14:18:08;25.60;52.00
27314;DHT22;14800;48.174;9.798;2023-07-31T14:20:34;25.60;50.90
27314;DHT22;14800;48.174;9.798;2023-07-31T14:22:59;25.60;51.10
27314;DHT22;14800;48.174;9.798;2023-07-31T14:25:25;25.60;51.00
27314;DHT22;14800;48.174;9.798;2023-07-31T14:27:51;25.50;50.70
27314;DHT22;14800;48.174;9.798;2023-07-31T14:30:16;25.60;51.00
27314;DHT22;14800;48.174;9.798;2023-07-31T14:32:43;25.50;50.80
27314;DHT22;14800;48.174;9.798;2023-07-31T14:35:09;25.50;50.80
27314;DHT22;14800;48.174;9.798;2023-07-31T14:37:41;25.50;51.20
27314;DHT22;14800;48.174;9.798;2023-07-31T14:40:08;25.50;51.20
27314;DHT22;14800;48.174;9.798;2023-07-31T14:42:35;25.50;51.60
27314;DHT22;14800;48.174;9.798;2023-07-31T14:45:01;25.50;51.60
27314;DHT22;14800;48.174;9.798;2023-07-31T14:47:27;25.40;51.90
27314;DHT22;14800;48.174;9.798;2023-07-31T14:49:52;25.40;52.00
27314;DHT22;14800;48.174;9.798;2023-07-31T14:52:18;25.40;52.00
27314;DHT22;14800;48.174;9.798;2023-07-31T14:54:44;25.40;53.00
27314;DHT22;14800;48.174;9.798;2023-07-31T14:57:10;25.40;52.20
27314;DHT22;14800;48.174;9.798;2023-07-31T14:59:36;25.40;52.90
27314;DHT22;14800;48.174;9.798;2023-07-31T15:02:01;25.40;52.20
27314;DHT22;14800;48.174;9.798;2023-07-31T15:04:27;25.50;52.40
27314;DHT22;14800;48.174;9.798;2023-07-31T15:06:53;25.40;52.10
27314;DHT22;14800;48.174;9.798;2023-07-31T15:09:19;25.50;52.00
27314;DHT22;14800;48.174;9.798;2023-07-31T15:11:44;25.50;52.30
27314;DHT22;14800;48.174;9.798;2023-07-31T15:14:10;25.50;52.60
27314;DHT22;14800;48.174;9.798;2023-07-31T15:16:35;25.60;52.50
27314;DHT22;14800;48.174;9.798;2023-07-31T15:19:01;25.60;52.10
27314;DHT22;14800;48.174;9.798;2023-07-31T15:21:27;25.60;52.10
27314;DHT22;14800;48.174;9.798;2023-07-31T15:23:52;25.70;52.20
27314;DHT22;14800;48.174;9.798;2023-07-31T15:26:18;25.70;52.10
27314;DHT22;14800;48.174;9.798;2023-07-31T15:28:49;25.70;52.00
27314;DHT22;14800;48.174;9.798;2023-07-31T15:31:15;25.70;51.60
27314;DHT22;14800;48.174;9.798;2023-07-31T15:33:41;25.70;51.90
27314;DHT22;14800;48.174;9.798;2023-07-31T15:36:07;25.70;51.90
27314;DHT22;14800;48.174;9.798;2023-07-31T15:38:32;25.70;51.70
27314;DHT22;14800;48.174;9.798;2023-07-31T15:40:58;25.70;51.80
27314;DHT22;14800;48.174;9.798;2023-07-31T15:43:24;25.70;51.70